Cincinnati, OH (45201)

12:37 AM EDT on July 29, 2016 (GMT -0400)
Newport Aquarium | | Change Station

Elev 499 ft 39.09 °N, 84.50 °W | Updated 59 seconds ago

Clear
Clear
77.6 °F
Feels Like 80 °F
N
0.0
Wind Variable Wind from SE
Gusts 5.0 mph

Today
High -- | Low -- °F
--% Chance of Precip.
Yesterday
High -- | Low -- °F
Precip. -- in
Pressure 29.90 in
Visibility 10.0 miles
Clouds Clear
Heat Index 80 °F
Dew Point 71 °F
Humidity 81%
Rainfall 0.22 in
Snow Depth Not available.
6:36 AM 8:52 PM
Waning Crescent, 25% visible
METAR KLUK 290353Z AUTO 00000KT 10SM CLR 23/23 A2991 RMK AO2 SLP124 T02280228
Pressure 29.90 in
Visibility 10.0 miles
Clouds Clear
Heat Index 80 °F
Dew Point 71 °F
Humidity 81%
Rainfall 0.22 in
Snow Depth Not available.
6:36 AM 8:52 PM
Waning Crescent, 25% visible
METAR KLUK 290353Z AUTO 00000KT 10SM CLR 23/23 A2991 RMK AO2 SLP124 T02280228

10-Day Weather Forecast

Almanac

Astronomy

Jul. 29, 2016 Rise Set
Actual Time
Civil Twilight
Nautical Twilight
Astronomical Twilight
Moon
Length of Visible Light
Length of Day
Tomorrow will be .
, % of the Moon is Illuminated

Today's Extremes

State Highs State Lows

Community

WunderPhotos

Upload Photos

1,928,294 photos uploaded!

WunderBlog® & News

Nearby

Air Quality

  Air Quality AQ Index Pollutant
Not available.

Snow Depth

Station Depth Elevation

Earthquake Activity

City Distance Mag. Time & Date
Minimum magnitude displayed is 2.5.

Coastal Water Temperatures

Place Temperature

Stations

Nearby Weather Stations

Station Location Temp. Windchill Dew Point Humidity Wind Precip. Elev Updated Type
                   

Watches & Warnings

There are currently no watches in effect.